sensor_id;sensor_type;location;lat;lon;timestamp;P1;durP1;ratioP1;P2;durP2;ratioP2
64353;SDS011;50681;53.334;-6.536;2023-06-24T00:02:08;16.05;;;3.92;;
64353;SDS011;50681;53.334;-6.536;2023-06-24T00:04:33;16.08;;;3.95;;
64353;SDS011;50681;53.334;-6.536;2023-06-24T00:06:59;15.73;;;3.45;;
64353;SDS011;50681;53.334;-6.536;2023-06-24T00:09:28;10.30;;;3.55;;
64353;SDS011;50681;53.334;-6.536;2023-06-24T00:11:55;13.85;;;3.72;;
64353;SDS011;50681;53.334;-6.536;2023-06-24T00:14:21;13.48;;;3.42;;
64353;SDS011;50681;53.334;-6.536;2023-06-24T00:16:49;10.50;;;3.30;;
64353;SDS011;50681;53.334;-6.536;2023-06-24T00:19:21;13.25;;;3.70;;
64353;SDS011;50681;53.334;-6.536;2023-06-24T00:21:48;14.13;;;4.22;;
64353;SDS011;50681;53.334;-6.536;2023-06-24T00:24:16;11.65;;;3.90;;
64353;SDS011;50681;53.334;-6.536;2023-06-24T00:26:42;14.18;;;4.10;;
64353;SDS011;50681;53.334;-6.536;2023-06-24T00:29:08;12.43;;;3.75;;
64353;SDS011;50681;53.334;-6.536;2023-06-24T00:31:34;17.88;;;4.40;;
64353;SDS011;50681;53.334;-6.536;2023-06-24T00:34:00;10.77;;;3.70;;
64353;SDS011;50681;53.334;-6.536;2023-06-24T00:39:21;13.60;;;3.35;;
64353;SDS011;50681;53.334;-6.536;2023-06-24T00:41:47;9.57;;;3.42;;
64353;SDS011;50681;53.334;-6.536;2023-06-24T00:44:13;14.80;;;3.60;;
64353;SDS011;50681;53.334;-6.536;2023-06-24T00:46:39;14.27;;;3.63;;
64353;SDS011;50681;53.334;-6.536;2023-06-24T00:49:05;12.23;;;4.07;;
64353;SDS011;50681;53.334;-6.536;2023-06-24T00:51:30;13.85;;;3.58;;
64353;SDS011;50681;53.334;-6.536;2023-06-24T00:53:56;12.13;;;3.35;;
64353;SDS011;50681;53.334;-6.536;2023-06-24T00:56:25;15.40;;;3.38;;
64353;SDS011;50681;53.334;-6.536;2023-06-24T00:58:54;14.98;;;4.40;;
64353;SDS011;50681;53.334;-6.536;2023-06-24T01:01:22;10.75;;;3.70;;
64353;SDS011;50681;53.334;-6.536;2023-06-24T01:03:49;12.85;;;4.80;;
64353;SDS011;50681;53.334;-6.536;2023-06-24T01:06:14;17.90;;;4.35;;
64353;SDS011;50681;53.334;-6.536;2023-06-24T01:08:40;12.40;;;4.55;;
64353;SDS011;50681;53.334;-6.536;2023-06-24T01:11:06;14.77;;;4.35;;
64353;SDS011;50681;53.334;-6.536;2023-06-24T01:13:31;20.60;;;4.77;;
64353;SDS011;50681;53.334;-6.536;2023-06-24T01:15:58;13.07;;;4.93;;
64353;SDS011;50681;53.334;-6.536;2023-06-24T01:18:41;15.15;;;4.47;;
64353;SDS011;50681;53.334;-6.536;2023-06-24T01:21:24;16.23;;;4.45;;
64353;SDS011;50681;53.334;-6.536;2023-06-24T01:24:31;11.82;;;4.82;;
64353;SDS011;50681;53.334;-6.536;2023-06-24T01:34:48;18.27;;;4.53;;
64353;SDS011;50681;53.334;-6.536;2023-06-24T01:42:41;15.13;;;4.72;;
64353;SDS011;50681;53.334;-6.536;2023-06-24T01:45:15;14.85;;;4.72;;
64353;SDS011;50681;53.334;-6.536;2023-06-24T01:47:45;17.50;;;4.13;;
64353;SDS011;50681;53.334;-6.536;2023-06-24T01:50:12;18.80;;;4.63;;
64353;SDS011;50681;53.334;-6.536;2023-06-24T01:52:43;12.63;;;4.00;;
64353;SDS011;50681;53.334;-6.536;2023-06-24T01:55:10;13.90;;;4.70;;
64353;SDS011;50681;53.334;-6.536;2023-06-24T01:57:38;15.95;;;4.72;;
64353;SDS011;50681;53.334;-6.536;2023-06-24T02:00:07;13.48;;;4.50;;
64353;SDS011;50681;53.334;-6.536;2023-06-24T02:02:36;15.95;;;4.35;;
64353;SDS011;50681;53.334;-6.536;2023-06-24T02:05:03;14.40;;;3.92;;
64353;SDS011;50681;53.334;-6.536;2023-06-24T02:07:31;14.43;;;4.40;;
64353;SDS011;50681;53.334;-6.536;2023-06-24T02:09:58;15.73;;;4.45;;
64353;SDS011;50681;53.334;-6.536;2023-06-24T02:12:25;18.35;;;4.30;;
64353;SDS011;50681;53.334;-6.536;2023-06-24T02:14:54;14.95;;;4.47;;
64353;SDS011;50681;53.334;-6.536;2023-06-24T02:17:21;16.27;;;4.35;;
64353;SDS011;50681;53.334;-6.536;2023-06-24T02:19:49;15.05;;;4.47;;
64353;SDS011;50681;53.334;-6.536;2023-06-24T02:22:15;12.43;;;4.00;;
64353;SDS011;50681;53.334;-6.536;2023-06-24T02:24:42;15.00;;;4.38;;
64353;SDS011;50681;53.334;-6.536;2023-06-24T02:29:36;15.02;;;4.47;;
64353;SDS011;50681;53.334;-6.536;2023-06-24T02:32:04;19.17;;;5.05;;
64353;SDS011;50681;53.334;-6.536;2023-06-24T02:36:56;13.15;;;4.38;;
64353;SDS011;50681;53.334;-6.536;2023-06-24T02:39:22;14.52;;;4.70;;
64353;SDS011;50681;53.334;-6.536;2023-06-24T02:41:48;17.08;;;4.97;;
64353;SDS011;50681;53.334;-6.536;2023-06-24T02:44:14;17.55;;;4.50;;
64353;SDS011;50681;53.334;-6.536;2023-06-24T02:46:40;17.15;;;4.22;;
64353;SDS011;50681;53.334;-6.536;2023-06-24T02:49:08;13.73;;;4.60;;
64353;SDS011;50681;53.334;-6.536;2023-06-24T02:51:39;17.35;;;4.50;;
64353;SDS011;50681;53.334;-6.536;2023-06-24T02:54:05;17.88;;;4.43;;
64353;SDS011;50681;53.334;-6.536;2023-06-24T02:56:31;14.52;;;3.95;;
64353;SDS011;50681;53.334;-6.536;2023-06-24T02:58:57;10.57;;;4.65;;
64353;SDS011;50681;53.334;-6.536;2023-06-24T03:01:23;14.05;;;4.22;;
64353;SDS011;50681;53.334;-6.536;2023-06-24T03:03:54;13.10;;;4.03;;
64353;SDS011;50681;53.334;-6.536;2023-06-24T03:06:21;16.45;;;4.22;;
64353;SDS011;50681;53.334;-6.536;2023-06-24T03:08:47;15.75;;;4.07;;
64353;SDS011;50681;53.334;-6.536;2023-06-24T03:11:13;13.07;;;3.83;;
64353;SDS011;50681;53.334;-6.536;2023-06-24T03:13:39;16.25;;;4.82;;
64353;SDS011;50681;53.334;-6.536;2023-06-24T03:16:05;10.77;;;3.92;;
64353;SDS011;50681;53.334;-6.536;2023-06-24T03:18:30;13.57;;;3.83;;
64353;SDS011;50681;53.334;-6.536;2023-06-24T03:20:56;12.95;;;4.00;;
64353;SDS011;50681;53.334;-6.536;2023-06-24T03:23:22;15.40;;;3.93;;
64353;SDS011;50681;53.334;-6.536;2023-06-24T03:25:48;17.08;;;3.97;;
64353;SDS011;50681;53.334;-6.536;2023-06-24T03:28:13;15.35;;;4.97;;
64353;SDS011;50681;53.334;-6.536;2023-06-24T03:30:39;21.42;;;5.55;;
64353;SDS011;50681;53.334;-6.536;2023-06-24T03:33:04;10.03;;;4.17;;
64353;SDS011;50681;53.334;-6.536;2023-06-24T03:35:31;11.60;;;4.53;;
64353;SDS011;50681;53.334;-6.536;2023-06-24T03:40:22;16.55;;;3.95;;
64353;SDS011;50681;53.334;-6.536;2023-06-24T03:42:48;11.07;;;4.00;;
64353;SDS011;50681;53.334;-6.536;2023-06-24T03:45:13;11.37;;;4.10;;
64353;SDS011;50681;53.334;-6.536;2023-06-24T03:47:39;10.43;;;3.53;;
64353;SDS011;50681;53.334;-6.536;2023-06-24T03:50:04;12.65;;;3.70;;
64353;SDS011;50681;53.334;-6.536;2023-06-24T03:52:30;11.82;;;4.43;;
64353;SDS011;50681;53.334;-6.536;2023-06-24T03:54:56;12.32;;;3.63;;
64353;SDS011;50681;53.334;-6.536;2023-06-24T03:57:21;13.88;;;3.83;;
64353;SDS011;50681;53.334;-6.536;2023-06-24T03:59:47;12.75;;;4.10;;
64353;SDS011;50681;53.334;-6.536;2023-06-24T04:02:13;11.27;;;3.80;;
64353;SDS011;50681;53.334;-6.536;2023-06-24T04:04:39;13.48;;;3.97;;
64353;SDS011;50681;53.334;-6.536;2023-06-24T04:07:04;10.60;;;3.50;;
64353;SDS011;50681;53.334;-6.536;2023-06-24T04:09:32;21.70;;;4.45;;
64353;SDS011;50681;53.334;-6.536;2023-06-24T04:11:58;10.98;;;3.30;;
64353;SDS011;50681;53.334;-6.536;2023-06-24T04:14:24;11.70;;;4.10;;
64353;SDS011;50681;53.334;-6.536;2023-06-24T04:16:49;12.33;;;3.40;;
64353;SDS011;50681;53.334;-6.536;2023-06-24T04:19:15;7.65;;;3.33;;
64353;SDS011;50681;53.334;-6.536;2023-06-24T04:24:08;9.45;;;4.32;;
64353;SDS011;50681;53.334;-6.536;2023-06-24T04:26:34;14.35;;;4.03;;
64353;SDS011;50681;53.334;-6.536;2023-06-24T04:29:05;10.77;;;3.77;;
64353;SDS011;50681;53.334;-6.536;2023-06-24T04:31:31;10.48;;;4.15;;
64353;SDS011;50681;53.334;-6.536;2023-06-24T04:33:56;12.68;;;4.47;;
64353;SDS011;50681;53.334;-6.536;2023-06-24T04:36:26;14.57;;;4.33;;
64353;SDS011;50681;53.334;-6.536;2023-06-24T04:38:51;14.05;;;3.70;;
64353;SDS011;50681;53.334;-6.536;2023-06-24T04:41:16;10.13;;;4.05;;
64353;SDS011;50681;53.334;-6.536;2023-06-24T04:43:44;13.20;;;3.92;;
64353;SDS011;50681;53.334;-6.536;2023-06-24T04:46:09;8.25;;;3.33;;
64353;SDS011;50681;53.334;-6.536;2023-06-24T04:48:35;11.10;;;3.37;;
64353;SDS011;50681;53.334;-6.536;2023-06-24T04:51:00;14.83;;;4.00;;
64353;SDS011;50681;53.334;-6.536;2023-06-24T04:53:26;7.97;;;3.03;;
64353;SDS011;50681;53.334;-6.536;2023-06-24T04:55:54;10.00;;;3.63;;
64353;SDS011;50681;53.334;-6.536;2023-06-24T04:58:20;10.82;;;4.05;;
64353;SDS011;50681;53.334;-6.536;2023-06-24T05:00:50;10.50;;;3.78;;
64353;SDS011;50681;53.334;-6.536;2023-06-24T05:03:16;10.45;;;3.53;;
64353;SDS011;50681;53.334;-6.536;2023-06-24T05:05:41;11.63;;;3.75;;
64353;SDS011;50681;53.334;-6.536;2023-06-24T05:08:07;10.32;;;3.45;;
64353;SDS011;50681;53.334;-6.536;2023-06-24T05:10:32;11.87;;;3.50;;
64353;SDS011;50681;53.334;-6.536;2023-06-24T05:12:57;11.60;;;3.90;;
64353;SDS011;50681;53.334;-6.536;2023-06-24T05:15:23;9.00;;;3.73;;
64353;SDS011;50681;53.334;-6.536;2023-06-24T05:17:48;8.25;;;3.38;;
64353;SDS011;50681;53.334;-6.536;2023-06-24T05:20:14;10.83;;;3.60;;
64353;SDS011;50681;53.334;-6.536;2023-06-24T05:22:39;8.52;;;3.13;;
64353;SDS011;50681;53.334;-6.536;2023-06-24T05:25:05;11.73;;;3.23;;
64353;SDS011;50681;53.334;-6.536;2023-06-24T05:27:31;6.43;;;2.97;;
64353;SDS011;50681;53.334;-6.536;2023-06-24T05:29:56;9.90;;;3.10;;
64353;SDS011;50681;53.334;-6.536;2023-06-24T05:32:21;6.82;;;2.78;;
64353;SDS011;50681;53.334;-6.536;2023-06-24T05:34:47;9.50;;;3.22;;
64353;SDS011;50681;53.334;-6.536;2023-06-24T05:37:12;13.27;;;3.00;;
64353;SDS011;50681;53.334;-6.536;2023-06-24T05:39:38;11.27;;;3.63;;
64353;SDS011;50681;53.334;-6.536;2023-06-24T05:42:04;11.73;;;3.45;;
64353;SDS011;50681;53.334;-6.536;2023-06-24T05:44:29;8.50;;;3.17;;
64353;SDS011;50681;53.334;-6.536;2023-06-24T05:46:55;9.30;;;3.67;;
64353;SDS011;50681;53.334;-6.536;2023-06-24T05:49:20;11.38;;;2.92;;
64353;SDS011;50681;53.334;-6.536;2023-06-24T05:51:46;9.40;;;3.07;;
64353;SDS011;50681;53.334;-6.536;2023-06-24T05:54:11;10.13;;;3.83;;
64353;SDS011;50681;53.334;-6.536;2023-06-24T05:56:37;15.93;;;3.65;;
64353;SDS011;50681;53.334;-6.536;2023-06-24T05:59:02;7.77;;;2.93;;
64353;SDS011;50681;53.334;-6.536;2023-06-24T06:01:27;10.40;;;3.00;;
64353;SDS011;50681;53.334;-6.536;2023-06-24T06:03:53;13.82;;;4.22;;
64353;SDS011;50681;53.334;-6.536;2023-06-24T06:06:18;8.98;;;3.35;;
64353;SDS011;50681;53.334;-6.536;2023-06-24T06:08:44;10.27;;;3.33;;
64353;SDS011;50681;53.334;-6.536;2023-06-24T06:11:09;11.03;;;3.67;;
64353;SDS011;50681;53.334;-6.536;2023-06-24T06:13:34;11.43;;;3.70;;
64353;SDS011;50681;53.334;-6.536;2023-06-24T06:16:00;13.65;;;3.10;;
64353;SDS011;50681;53.334;-6.536;2023-06-24T06:18:25;13.10;;;3.15;;
64353;SDS011;50681;53.334;-6.536;2023-06-24T06:20:51;9.30;;;3.42;;
64353;SDS011;50681;53.334;-6.536;2023-06-24T06:23:16;17.98;;;3.58;;
64353;SDS011;50681;53.334;-6.536;2023-06-24T06:25:42;9.02;;;3.70;;
64353;SDS011;50681;53.334;-6.536;2023-06-24T06:28:08;12.05;;;3.92;;
64353;SDS011;50681;53.334;-6.536;2023-06-24T06:30:34;13.88;;;3.75;;
64353;SDS011;50681;53.334;-6.536;2023-06-24T06:32:59;11.20;;;4.05;;
64353;SDS011;50681;53.334;-6.536;2023-06-24T06:35:25;11.90;;;3.47;;
64353;SDS011;50681;53.334;-6.536;2023-06-24T06:37:50;17.92;;;4.03;;
64353;SDS011;50681;53.334;-6.536;2023-06-24T06:40:22;12.52;;;3.78;;
64353;SDS011;50681;53.334;-6.536;2023-06-24T06:42:48;11.52;;;3.50;;
64353;SDS011;50681;53.334;-6.536;2023-06-24T06:45:14;11.25;;;3.40;;
64353;SDS011;50681;53.334;-6.536;2023-06-24T06:47:39;10.30;;;3.83;;
64353;SDS011;50681;53.334;-6.536;2023-06-24T06:50:05;9.00;;;3.13;;
64353;SDS011;50681;53.334;-6.536;2023-06-24T06:52:31;12.20;;;3.47;;
64353;SDS011;50681;53.334;-6.536;2023-06-24T06:54:56;12.38;;;3.35;;
64353;SDS011;50681;53.334;-6.536;2023-06-24T06:57:22;13.87;;;4.13;;
64353;SDS011;50681;53.334;-6.536;2023-06-24T06:59:47;11.63;;;2.90;;
64353;SDS011;50681;53.334;-6.536;2023-06-24T07:02:19;13.10;;;3.10;;
64353;SDS011;50681;53.334;-6.536;2023-06-24T07:04:46;9.75;;;3.13;;
64353;SDS011;50681;53.334;-6.536;2023-06-24T07:07:13;9.88;;;3.33;;
64353;SDS011;50681;53.334;-6.536;2023-06-24T07:09:38;8.80;;;3.13;;
64353;SDS011;50681;53.334;-6.536;2023-06-24T07:12:05;9.25;;;3.05;;
64353;SDS011;50681;53.334;-6.536;2023-06-24T07:14:31;9.07;;;2.80;;
64353;SDS011;50681;53.334;-6.536;2023-06-24T07:16:57;9.60;;;2.78;;
64353;SDS011;50681;53.334;-6.536;2023-06-24T07:19:22;13.02;;;3.03;;
64353;SDS011;50681;53.334;-6.536;2023-06-24T07:21:48;5.97;;;2.42;;
64353;SDS011;50681;53.334;-6.536;2023-06-24T07:24:13;13.38;;;3.42;;
64353;SDS011;50681;53.334;-6.536;2023-06-24T07:26:38;7.60;;;2.78;;
64353;SDS011;50681;53.334;-6.536;2023-06-24T07:29:07;8.82;;;2.88;;
64353;SDS011;50681;53.334;-6.536;2023-06-24T07:31:33;9.80;;;3.05;;
64353;SDS011;50681;53.334;-6.536;2023-06-24T07:36:24;13.00;;;3.50;;
64353;SDS011;50681;53.334;-6.536;2023-06-24T07:38:49;14.35;;;3.58;;
64353;SDS011;50681;53.334;-6.536;2023-06-24T07:41:15;11.35;;;3.30;;
64353;SDS011;50681;53.334;-6.536;2023-06-24T07:43:40;11.18;;;3.47;;
64353;SDS011;50681;53.334;-6.536;2023-06-24T07:46:06;9.32;;;3.17;;
64353;SDS011;50681;53.334;-6.536;2023-06-24T07:48:31;11.65;;;3.20;;
64353;SDS011;50681;53.334;-6.536;2023-06-24T07:50:57;12.95;;;2.95;;
64353;SDS011;50681;53.334;-6.536;2023-06-24T07:53:23;13.65;;;3.42;;
64353;SDS011;50681;53.334;-6.536;2023-06-24T07:55:48;13.25;;;2.70;;
64353;SDS011;50681;53.334;-6.536;2023-06-24T07:58:14;9.00;;;3.28;;
64353;SDS011;50681;53.334;-6.536;2023-06-24T08:00:39;8.68;;;2.97;;
64353;SDS011;50681;53.334;-6.536;2023-06-24T08:03:05;8.45;;;3.10;;
64353;SDS011;50681;53.334;-6.536;2023-06-24T08:05:30;10.80;;;3.17;;
64353;SDS011;50681;53.334;-6.536;2023-06-24T08:07:56;8.32;;;2.63;;
64353;SDS011;50681;53.334;-6.536;2023-06-24T08:10:24;9.10;;;2.50;;
64353;SDS011;50681;53.334;-6.536;2023-06-24T08:12:49;9.82;;;3.47;;
64353;SDS011;50681;53.334;-6.536;2023-06-24T08:15:15;8.05;;;2.22;;
64353;SDS011;50681;53.334;-6.536;2023-06-24T08:17:40;9.23;;;2.72;;
64353;SDS011;50681;53.334;-6.536;2023-06-24T08:20:06;13.35;;;3.60;;
64353;SDS011;50681;53.334;-6.536;2023-06-24T08:22:31;14.82;;;2.90;;
64353;SDS011;50681;53.334;-6.536;2023-06-24T08:24:58;13.88;;;3.17;;
64353;SDS011;50681;53.334;-6.536;2023-06-24T08:27:24;11.55;;;3.40;;
64353;SDS011;50681;53.334;-6.536;2023-06-24T08:29:49;12.90;;;3.65;;
64353;SDS011;50681;53.334;-6.536;2023-06-24T08:32:15;7.57;;;2.90;;
64353;SDS011;50681;53.334;-6.536;2023-06-24T08:34:40;13.52;;;3.00;;
64353;SDS011;50681;53.334;-6.536;2023-06-24T08:37:06;10.25;;;3.00;;
64353;SDS011;50681;53.334;-6.536;2023-06-24T08:39:32;11.50;;;3.58;;
64353;SDS011;50681;53.334;-6.536;2023-06-24T08:41:58;7.57;;;3.20;;
64353;SDS011;50681;53.334;-6.536;2023-06-24T08:44:24;15.32;;;3.53;;
64353;SDS011;50681;53.334;-6.536;2023-06-24T08:46:49;12.05;;;3.22;;
64353;SDS011;50681;53.334;-6.536;2023-06-24T08:51:57;16.75;;;3.55;;
64353;SDS011;50681;53.334;-6.536;2023-06-24T08:54:34;11.48;;;3.40;;
64353;SDS011;50681;53.334;-6.536;2023-06-24T08:57:01;11.48;;;3.75;;
64353;SDS011;50681;53.334;-6.536;2023-06-24T08:59:30;8.77;;;3.35;;
64353;SDS011;50681;53.334;-6.536;2023-06-24T09:01:56;8.02;;;3.05;;
64353;SDS011;50681;53.334;-6.536;2023-06-24T09:04:21;8.45;;;3.10;;
64353;SDS011;50681;53.334;-6.536;2023-06-24T09:06:47;13.82;;;3.60;;
64353;SDS011;50681;53.334;-6.536;2023-06-24T09:09:19;11.40;;;3.13;;
64353;SDS011;50681;53.334;-6.536;2023-06-24T09:11:58;13.82;;;3.53;;
64353;SDS011;50681;53.334;-6.536;2023-06-24T09:14:25;14.10;;;4.05;;
64353;SDS011;50681;53.334;-6.536;2023-06-24T09:19:24;11.43;;;3.60;;
64353;SDS011;50681;53.334;-6.536;2023-06-24T09:22:04;12.55;;;3.85;;
64353;SDS011;50681;53.334;-6.536;2023-06-24T09:24:31;10.18;;;3.10;;
64353;SDS011;50681;53.334;-6.536;2023-06-24T09:27:01;7.20;;;2.83;;
64353;SDS011;50681;53.334;-6.536;2023-06-24T09:31:52;13.15;;;4.40;;
64353;SDS011;50681;53.334;-6.536;2023-06-24T09:34:19;10.95;;;3.42;;
64353;SDS011;50681;53.334;-6.536;2023-06-24T09:36:47;13.55;;;3.42;;
64353;SDS011;50681;53.334;-6.536;2023-06-24T09:39:16;9.82;;;2.95;;
64353;SDS011;50681;53.334;-6.536;2023-06-24T09:41:42;11.23;;;3.65;;
64353;SDS011;50681;53.334;-6.536;2023-06-24T09:44:10;23.70;;;3.80;;
64353;SDS011;50681;53.334;-6.536;2023-06-24T09:49:03;19.40;;;3.60;;
64353;SDS011;50681;53.334;-6.536;2023-06-24T09:51:29;11.15;;;3.45;;
64353;SDS011;50681;53.334;-6.536;2023-06-24T09:54:06;9.68;;;4.00;;
64353;SDS011;50681;53.334;-6.536;2023-06-24T09:56:36;8.73;;;3.40;;
64353;SDS011;50681;53.334;-6.536;2023-06-24T09:59:05;10.38;;;3.88;;
64353;SDS011;50681;53.334;-6.536;2023-06-24T10:01:37;8.90;;;3.55;;
64353;SDS011;50681;53.334;-6.536;2023-06-24T10:04:04;13.77;;;3.50;;
64353;SDS011;50681;53.334;-6.536;2023-06-24T10:06:32;10.52;;;4.15;;
64353;SDS011;50681;53.334;-6.536;2023-06-24T10:08:58;9.80;;;3.67;;
64353;SDS011;50681;53.334;-6.536;2023-06-24T10:11:24;17.45;;;4.00;;
64353;SDS011;50681;53.334;-6.536;2023-06-24T10:16:15;10.05;;;4.03;;
64353;SDS011;50681;53.334;-6.536;2023-06-24T10:21:08;12.35;;;5.70;;
64353;SDS011;50681;53.334;-6.536;2023-06-24T10:26:25;11.25;;;3.90;;
64353;SDS011;50681;53.334;-6.536;2023-06-24T10:31:50;11.63;;;3.85;;
64353;SDS011;50681;53.334;-6.536;2023-06-24T10:36:59;8.02;;;3.83;;
64353;SDS011;50681;53.334;-6.536;2023-06-24T10:39:54;16.23;;;4.22;;
64353;SDS011;50681;53.334;-6.536;2023-06-24T10:42:36;14.52;;;4.63;;
64353;SDS011;50681;53.334;-6.536;2023-06-24T10:45:17;15.73;;;4.15;;
64353;SDS011;50681;53.334;-6.536;2023-06-24T10:47:45;15.52;;;5.00;;
64353;SDS011;50681;53.334;-6.536;2023-06-24T10:53:35;12.30;;;4.78;;
64353;SDS011;50681;53.334;-6.536;2023-06-24T10:58:27;13.30;;;4.47;;
64353;SDS011;50681;53.334;-6.536;2023-06-24T11:03:17;18.50;;;4.38;;
64353;SDS011;50681;53.334;-6.536;2023-06-24T11:05:45;19.63;;;4.82;;
64353;SDS011;50681;53.334;-6.536;2023-06-24T11:08:11;15.27;;;4.07;;
64353;SDS011;50681;53.334;-6.536;2023-06-24T11:13:09;10.05;;;3.92;;
64353;SDS011;50681;53.334;-6.536;2023-06-24T11:18:02;10.55;;;4.10;;
64353;SDS011;50681;53.334;-6.536;2023-06-24T11:20:31;10.88;;;3.63;;
64353;SDS011;50681;53.334;-6.536;2023-06-24T11:25:21;8.20;;;3.25;;
64353;SDS011;50681;53.334;-6.536;2023-06-24T11:30:15;18.48;;;4.60;;
64353;SDS011;50681;53.334;-6.536;2023-06-24T11:32:42;14.50;;;4.50;;
64353;SDS011;50681;53.334;-6.536;2023-06-24T11:35:09;10.63;;;4.15;;
64353;SDS011;50681;53.334;-6.536;2023-06-24T11:37:36;14.93;;;4.85;;
64353;SDS011;50681;53.334;-6.536;2023-06-24T11:42:29;14.85;;;4.03;;
64353;SDS011;50681;53.334;-6.536;2023-06-24T11:44:59;13.55;;;4.40;;
64353;SDS011;50681;53.334;-6.536;2023-06-24T11:47:26;15.68;;;4.68;;
64353;SDS011;50681;53.334;-6.536;2023-06-24T11:52:18;9.48;;;3.78;;
64353;SDS011;50681;53.334;-6.536;2023-06-24T11:57:09;16.63;;;4.22;;
64353;SDS011;50681;53.334;-6.536;2023-06-24T12:02:00;11.38;;;4.03;;
64353;SDS011;50681;53.334;-6.536;2023-06-24T12:04:32;14.05;;;3.60;;
64353;SDS011;50681;53.334;-6.536;2023-06-24T12:06:59;15.70;;;3.72;;
64353;SDS011;50681;53.334;-6.536;2023-06-24T12:11:51;13.30;;;4.00;;
64353;SDS011;50681;53.334;-6.536;2023-06-24T12:14:18;8.52;;;3.63;;
64353;SDS011;50681;53.334;-6.536;2023-06-24T12:16:44;11.88;;;2.92;;
64353;SDS011;50681;53.334;-6.536;2023-06-24T12:21:38;11.60;;;3.30;;
64353;SDS011;50681;53.334;-6.536;2023-06-24T12:24:04;10.13;;;3.08;;
64353;SDS011;50681;53.334;-6.536;2023-06-24T12:26:31;8.98;;;2.42;;
64353;SDS011;50681;53.334;-6.536;2023-06-24T12:28:57;8.95;;;2.88;;
64353;SDS011;50681;53.334;-6.536;2023-06-24T12:31:28;7.03;;;2.30;;
64353;SDS011;50681;53.334;-6.536;2023-06-24T12:36:19;11.88;;;2.65;;
64353;SDS011;50681;53.334;-6.536;2023-06-24T12:38:47;6.60;;;2.72;;
64353;SDS011;50681;53.334;-6.536;2023-06-24T12:41:13;8.75;;;2.60;;
64353;SDS011;50681;53.334;-6.536;2023-06-24T12:46:04;9.93;;;2.20;;
64353;SDS011;50681;53.334;-6.536;2023-06-24T12:50:56;4.90;;;1.85;;
64353;SDS011;50681;53.334;-6.536;2023-06-24T12:53:21;6.63;;;2.63;;
64353;SDS011;50681;53.334;-6.536;2023-06-24T12:58:18;5.43;;;2.38;;
64353;SDS011;50681;53.334;-6.536;2023-06-24T13:00:48;6.50;;;2.55;;
64353;SDS011;50681;53.334;-6.536;2023-06-24T13:05:39;7.07;;;2.17;;
64353;SDS011;50681;53.334;-6.536;2023-06-24T13:10:31;8.03;;;2.10;;
64353;SDS011;50681;53.334;-6.536;2023-06-24T13:12:57;5.82;;;2.10;;
64353;SDS011;50681;53.334;-6.536;2023-06-24T13:17:49;7.75;;;2.05;;
64353;SDS011;50681;53.334;-6.536;2023-06-24T13:20:15;6.00;;;1.83;;
64353;SDS011;50681;53.334;-6.536;2023-06-24T13:22:40;6.00;;;1.73;;
64353;SDS011;50681;53.334;-6.536;2023-06-24T13:25:06;5.97;;;1.80;;
64353;SDS011;50681;53.334;-6.536;2023-06-24T13:27:32;2.97;;;1.48;;
64353;SDS011;50681;53.334;-6.536;2023-06-24T13:29:58;3.63;;;1.35;;
64353;SDS011;50681;53.334;-6.536;2023-06-24T13:34:49;3.22;;;1.40;;
64353;SDS011;50681;53.334;-6.536;2023-06-24T13:37:14;6.82;;;1.42;;
64353;SDS011;50681;53.334;-6.536;2023-06-24T13:39:40;5.88;;;1.67;;
64353;SDS011;50681;53.334;-6.536;2023-06-24T13:44:31;7.18;;;1.50;;
64353;SDS011;50681;53.334;-6.536;2023-06-24T13:46:56;4.40;;;1.30;;
64353;SDS011;50681;53.334;-6.536;2023-06-24T13:51:47;7.57;;;1.30;;
64353;SDS011;50681;53.334;-6.536;2023-06-24T13:56:38;6.40;;;2.00;;
64353;SDS011;50681;53.334;-6.536;2023-06-24T14:01:29;5.57;;;1.35;;
64353;SDS011;50681;53.334;-6.536;2023-06-24T14:06:20;5.03;;;1.08;;
64353;SDS011;50681;53.334;-6.536;2023-06-24T14:08:47;6.22;;;1.70;;
64353;SDS011;50681;53.334;-6.536;2023-06-24T14:11:13;5.82;;;1.17;;
64353;SDS011;50681;53.334;-6.536;2023-06-24T14:13:39;4.30;;;1.30;;
64353;SDS011;50681;53.334;-6.536;2023-06-24T14:16:05;6.20;;;1.20;;
64353;SDS011;50681;53.334;-6.536;2023-06-24T14:18:30;4.20;;;1.27;;
64353;SDS011;50681;53.334;-6.536;2023-06-24T14:21:00;8.95;;;1.10;;
64353;SDS011;50681;53.334;-6.536;2023-06-24T14:23:27;4.80;;;1.42;;
64353;SDS011;50681;53.334;-6.536;2023-06-24T14:25:53;3.72;;;1.40;;
64353;SDS011;50681;53.334;-6.536;2023-06-24T14:28:19;3.80;;;1.40;;
64353;SDS011;50681;53.334;-6.536;2023-06-24T14:30:45;5.75;;;1.50;;
64353;SDS011;50681;53.334;-6.536;2023-06-24T14:33:11;5.93;;;1.38;;
64353;SDS011;50681;53.334;-6.536;2023-06-24T14:35:37;3.97;;;1.40;;
64353;SDS011;50681;53.334;-6.536;2023-06-24T14:38:03;7.68;;;1.50;;
64353;SDS011;50681;53.334;-6.536;2023-06-24T14:40:29;4.22;;;1.40;;
64353;SDS011;50681;53.334;-6.536;2023-06-24T14:45:19;4.28;;;1.65;;
64353;SDS011;50681;53.334;-6.536;2023-06-24T14:50:10;6.85;;;1.77;;
64353;SDS011;50681;53.334;-6.536;2023-06-24T14:52:36;4.53;;;1.38;;
64353;SDS011;50681;53.334;-6.536;2023-06-24T14:55:01;2.83;;;1.25;;
64353;SDS011;50681;53.334;-6.536;2023-06-24T14:57:27;9.35;;;1.40;;
64353;SDS011;50681;53.334;-6.536;2023-06-24T15:02:17;4.93;;;1.80;;
64353;SDS011;50681;53.334;-6.536;2023-06-24T15:07:08;3.90;;;2.20;;
64353;SDS011;50681;53.334;-6.536;2023-06-24T15:09:34;5.38;;;2.00;;
64353;SDS011;50681;53.334;-6.536;2023-06-24T15:11:59;6.13;;;2.17;;
64353;SDS011;50681;53.334;-6.536;2023-06-24T15:16:50;6.18;;;3.28;;
64353;SDS011;50681;53.334;-6.536;2023-06-24T15:19:17;7.75;;;2.35;;
64353;SDS011;50681;53.334;-6.536;2023-06-24T15:21:43;7.10;;;3.20;;
64353;SDS011;50681;53.334;-6.536;2023-06-24T15:24:08;5.25;;;1.80;;
64353;SDS011;50681;53.334;-6.536;2023-06-24T15:28:59;14.65;;;2.00;;
64353;SDS011;50681;53.334;-6.536;2023-06-24T15:33:50;9.10;;;2.22;;
64353;SDS011;50681;53.334;-6.536;2023-06-24T15:36:16;7.10;;;2.33;;
64353;SDS011;50681;53.334;-6.536;2023-06-24T15:41:06;5.50;;;1.80;;
64353;SDS011;50681;53.334;-6.536;2023-06-24T15:43:34;4.97;;;1.50;;
64353;SDS011;50681;53.334;-6.536;2023-06-24T15:46:00;6.88;;;1.85;;
64353;SDS011;50681;53.334;-6.536;2023-06-24T15:50:52;25.77;;;18.67;;
64353;SDS011;50681;53.334;-6.536;2023-06-24T15:53:18;52.70;;;43.95;;
64353;SDS011;50681;53.334;-6.536;2023-06-24T15:55:43;11.43;;;7.82;;
64353;SDS011;50681;53.334;-6.536;2023-06-24T15:58:09;39.05;;;21.77;;
64353;SDS011;50681;53.334;-6.536;2023-06-24T16:00:41;57.63;;;28.73;;
64353;SDS011;50681;53.334;-6.536;2023-06-24T16:03:06;23.20;;;13.63;;
64353;SDS011;50681;53.334;-6.536;2023-06-24T16:05:31;16.83;;;7.35;;
64353;SDS011;50681;53.334;-6.536;2023-06-24T16:10:22;7.95;;;2.78;;
64353;SDS011;50681;53.334;-6.536;2023-06-24T16:12:48;68.78;;;45.40;;
64353;SDS011;50681;53.334;-6.536;2023-06-24T16:15:13;84.50;;;49.65;;
64353;SDS011;50681;53.334;-6.536;2023-06-24T16:17:38;35.58;;;26.08;;
64353;SDS011;50681;53.334;-6.536;2023-06-24T16:20:04;12.38;;;6.55;;
64353;SDS011;50681;53.334;-6.536;2023-06-24T16:22:31;19.88;;;10.38;;
64353;SDS011;50681;53.334;-6.536;2023-06-24T16:24:57;17.15;;;10.80;;
64353;SDS011;50681;53.334;-6.536;2023-06-24T16:27:22;8.80;;;3.10;;
64353;SDS011;50681;53.334;-6.536;2023-06-24T16:32:13;10.50;;;2.55;;
64353;SDS011;50681;53.334;-6.536;2023-06-24T16:34:38;5.28;;;2.40;;
64353;SDS011;50681;53.334;-6.536;2023-06-24T16:37:04;9.07;;;2.25;;
64353;SDS011;50681;53.334;-6.536;2023-06-24T16:39:29;5.95;;;2.63;;
64353;SDS011;50681;53.334;-6.536;2023-06-24T16:41:55;4.60;;;2.20;;
64353;SDS011;50681;53.334;-6.536;2023-06-24T16:46:46;4.43;;;1.98;;
64353;SDS011;50681;53.334;-6.536;2023-06-24T16:49:11;13.13;;;1.92;;